sensor_id;sensor_type;location;lat;lon;timestamp;temperature;humidity
52435;DHT22;38354;52.892;6.148;2023-05-24T03:01:11;8.40;99.90
52435;DHT22;38354;52.892;6.148;2023-05-24T03:03:38;8.40;99.90
52435;DHT22;38354;52.892;6.148;2023-05-24T03:06:04;8.40;99.90
52435;DHT22;38354;52.892;6.148;2023-05-24T03:08:34;8.30;99.90
52435;DHT22;38354;52.892;6.148;2023-05-24T03:11:02;8.30;99.90
52435;DHT22;38354;52.892;6.148;2023-05-24T03:13:30;8.30;99.90
52435;DHT22;38354;52.892;6.148;2023-05-24T03:15:55;8.30;99.90
52435;DHT22;38354;52.892;6.148;2023-05-24T03:18:21;8.20;99.90
52435;DHT22;38354;52.892;6.148;2023-05-24T03:20:47;8.30;99.90
52435;DHT22;38354;52.892;6.148;2023-05-24T03:23:13;8.20;99.90
52435;DHT22;38354;52.892;6.148;2023-05-24T03:25:39;8.20;99.90
52435;DHT22;38354;52.892;6.148;2023-05-24T03:28:05;8.30;99.90
52435;DHT22;38354;52.892;6.148;2023-05-24T03:30:31;8.20;99.90
52435;DHT22;38354;52.892;6.148;2023-05-24T03:32:57;8.20;99.90
52435;DHT22;38354;52.892;6.148;2023-05-24T03:35:23;8.20;99.90
52435;DHT22;38354;52.892;6.148;2023-05-24T03:37:49;8.20;99.90
52435;DHT22;38354;52.892;6.148;2023-05-24T03:40:14;8.10;99.90
52435;DHT22;38354;52.892;6.148;2023-05-24T03:42:40;8.10;99.90
52435;DHT22;38354;52.892;6.148;2023-05-24T03:45:06;8.10;99.90
52435;DHT22;38354;52.892;6.148;2023-05-24T03:47:32;8.10;99.90
52435;DHT22;38354;52.892;6.148;2023-05-24T03:49:58;8.20;99.90
52435;DHT22;38354;52.892;6.148;2023-05-24T03:52:24;8.20;99.90
52435;DHT22;38354;52.892;6.148;2023-05-24T03:54:49;8.20;99.90
52435;DHT22;38354;52.892;6.148;2023-05-24T03:57:16;8.20;99.90
52435;DHT22;38354;52.892;6.148;2023-05-24T03:59:42;8.10;99.90
52435;DHT22;38354;52.892;6.148;2023-05-24T04:02:07;8.10;99.90
52435;DHT22;38354;52.892;6.148;2023-05-24T04:04:33;8.10;99.90
52435;DHT22;38354;52.892;6.148;2023-05-24T04:06:58;8.10;99.90
52435;DHT22;38354;52.892;6.148;2023-05-24T04:09:24;8.10;99.90
52435;DHT22;38354;52.892;6.148;2023-05-24T04:11:50;8.10;99.90
52435;DHT22;38354;52.892;6.148;2023-05-24T04:14:15;8.10;99.90
52435;DHT22;38354;52.892;6.148;2023-05-24T04:16:41;8.10;99.90
52435;DHT22;38354;52.892;6.148;2023-05-24T04:19:09;8.20;99.90
52435;DHT22;38354;52.892;6.148;2023-05-24T04:21:36;8.10;99.90
52435;DHT22;38354;52.892;6.148;2023-05-24T04:24:03;8.10;99.90
52435;DHT22;38354;52.892;6.148;2023-05-24T04:26:29;8.20;99.90
52435;DHT22;38354;52.892;6.148;2023-05-24T04:28:55;8.20;99.90
52435;DHT22;38354;52.892;6.148;2023-05-24T04:31:21;8.20;99.90
52435;DHT22;38354;52.892;6.148;2023-05-24T04:33:47;8.20;99.90
52435;DHT22;38354;52.892;6.148;2023-05-24T04:36:14;8.20;99.90
52435;DHT22;38354;52.892;6.148;2023-05-24T04:38:40;8.20;99.90
52435;DHT22;38354;52.892;6.148;2023-05-24T04:41:06;8.30;99.90
52435;DHT22;38354;52.892;6.148;2023-05-24T04:43:32;8.30;99.90
52435;DHT22;38354;52.892;6.148;2023-05-24T04:46:01;8.30;99.90
52435;DHT22;38354;52.892;6.148;2023-05-24T04:48:27;8.30;99.90
52435;DHT22;38354;52.892;6.148;2023-05-24T04:50:54;8.30;99.90
52435;DHT22;38354;52.892;6.148;2023-05-24T04:53:21;8.40;99.90
52435;DHT22;38354;52.892;6.148;2023-05-24T04:55:47;8.40;99.90
52435;DHT22;38354;52.892;6.148;2023-05-24T04:58:13;8.40;99.90
52435;DHT22;38354;52.892;6.148;2023-05-24T05:00:39;8.50;99.90
52435;DHT22;38354;52.892;6.148;2023-05-24T05:03:05;8.50;99.90
52435;DHT22;38354;52.892;6.148;2023-05-24T05:05:31;8.50;99.90
52435;DHT22;38354;52.892;6.148;2023-05-24T05:07:56;8.50;99.90
52435;DHT22;38354;52.892;6.148;2023-05-24T05:10:23;8.60;99.90
52435;DHT22;38354;52.892;6.148;2023-05-24T05:12:49;8.60;99.90
52435;DHT22;38354;52.892;6.148;2023-05-24T05:15:15;8.60;99.90
52435;DHT22;38354;52.892;6.148;2023-05-24T05:17:41;8.70;99.90
52435;DHT22;38354;52.892;6.148;2023-05-24T05:20:07;8.70;99.90
52435;DHT22;38354;52.892;6.148;2023-05-24T05:22:33;8.80;99.90
52435;DHT22;38354;52.892;6.148;2023-05-24T05:24:59;8.90;99.90
52435;DHT22;38354;52.892;6.148;2023-05-24T05:27:25;8.90;99.90
52435;DHT22;38354;52.892;6.148;2023-05-24T05:29:51;9.00;99.90
52435;DHT22;38354;52.892;6.148;2023-05-24T05:32:16;9.10;99.90
52435;DHT22;38354;52.892;6.148;2023-05-24T05:34:42;9.10;99.90
52435;DHT22;38354;52.892;6.148;2023-05-24T05:37:07;9.20;99.90
52435;DHT22;38354;52.892;6.148;2023-05-24T05:39:33;9.30;99.90
52435;DHT22;38354;52.892;6.148;2023-05-24T05:41:59;9.40;99.90
52435;DHT22;38354;52.892;6.148;2023-05-24T05:44:25;9.40;99.90
52435;DHT22;38354;52.892;6.148;2023-05-24T05:46:51;9.40;99.90
52435;DHT22;38354;52.892;6.148;2023-05-24T05:49:16;9.50;99.90
52435;DHT22;38354;52.892;6.148;2023-05-24T05:51:43;9.60;99.90
52435;DHT22;38354;52.892;6.148;2023-05-24T05:54:09;9.60;99.90
52435;DHT22;38354;52.892;6.148;2023-05-24T05:56:42;9.70;99.90
52435;DHT22;38354;52.892;6.148;2023-05-24T05:59:18;9.70;99.90
52435;DHT22;38354;52.892;6.148;2023-05-24T06:01:44;9.80;99.90
52435;DHT22;38354;52.892;6.148;2023-05-24T06:04:12;9.90;99.90
52435;DHT22;38354;52.892;6.148;2023-05-24T06:06:38;9.90;99.90
52435;DHT22;38354;52.892;6.148;2023-05-24T06:09:04;10.00;99.90
52435;DHT22;38354;52.892;6.148;2023-05-24T06:11:30;10.10;99.90
52435;DHT22;38354;52.892;6.148;2023-05-24T06:13:56;10.10;99.90
52435;DHT22;38354;52.892;6.148;2023-05-24T06:16:22;10.20;99.90
52435;DHT22;38354;52.892;6.148;2023-05-24T06:18:48;10.30;99.90
52435;DHT22;38354;52.892;6.148;2023-05-24T06:21:14;10.30;99.90
52435;DHT22;38354;52.892;6.148;2023-05-24T06:23:40;10.40;99.90
52435;DHT22;38354;52.892;6.148;2023-05-24T06:26:06;10.40;99.90
52435;DHT22;38354;52.892;6.148;2023-05-24T06:28:35;10.60;99.90
52435;DHT22;38354;52.892;6.148;2023-05-24T06:31:04;10.60;99.90
52435;DHT22;38354;52.892;6.148;2023-05-24T06:33:30;10.70;99.90
52435;DHT22;38354;52.892;6.148;2023-05-24T06:35:57;10.80;99.90
52435;DHT22;38354;52.892;6.148;2023-05-24T06:38:22;10.90;99.90
52435;DHT22;38354;52.892;6.148;2023-05-24T06:40:48;10.90;99.90
52435;DHT22;38354;52.892;6.148;2023-05-24T06:43:14;11.00;99.90
52435;DHT22;38354;52.892;6.148;2023-05-24T06:45:40;11.00;99.90
52435;DHT22;38354;52.892;6.148;2023-05-24T06:48:06;11.10;99.90
52435;DHT22;38354;52.892;6.148;2023-05-24T06:50:31;11.20;99.90
52435;DHT22;38354;52.892;6.148;2023-05-24T06:52:57;11.30;99.90
52435;DHT22;38354;52.892;6.148;2023-05-24T06:55:23;11.30;99.90
52435;DHT22;38354;52.892;6.148;2023-05-24T06:57:48;11.40;99.90
52435;DHT22;38354;52.892;6.148;2023-05-24T07:00:14;11.40;99.90
52435;DHT22;38354;52.892;6.148;2023-05-24T07:02:40;11.40;99.90
52435;DHT22;38354;52.892;6.148;2023-05-24T07:05:07;11.40;99.90
52435;DHT22;38354;52.892;6.148;2023-05-24T07:07:43;11.50;99.90
52435;DHT22;38354;52.892;6.148;2023-05-24T07:10:10;11.50;99.90
52435;DHT22;38354;52.892;6.148;2023-05-24T07:12:38;11.50;99.90
52435;DHT22;38354;52.892;6.148;2023-05-24T07:15:05;11.50;99.90
52435;DHT22;38354;52.892;6.148;2023-05-24T07:17:31;11.60;99.90
52435;DHT22;38354;52.892;6.148;2023-05-24T07:19:58;11.60;99.90
52435;DHT22;38354;52.892;6.148;2023-05-24T07:22:24;11.60;99.90
52435;DHT22;38354;52.892;6.148;2023-05-24T07:24:53;11.70;99.90
52435;DHT22;38354;52.892;6.148;2023-05-24T07:27:18;11.70;99.90
52435;DHT22;38354;52.892;6.148;2023-05-24T07:29:44;11.70;99.90
52435;DHT22;38354;52.892;6.148;2023-05-24T07:32:10;11.70;99.90
52435;DHT22;38354;52.892;6.148;2023-05-24T07:34:36;11.70;99.90
52435;DHT22;38354;52.892;6.148;2023-05-24T07:37:04;11.70;99.90
52435;DHT22;38354;52.892;6.148;2023-05-24T07:39:29;11.80;99.90
52435;DHT22;38354;52.892;6.148;2023-05-24T07:41:55;11.90;99.90
52435;DHT22;38354;52.892;6.148;2023-05-24T07:44:21;11.90;99.90
52435;DHT22;38354;52.892;6.148;2023-05-24T07:46:48;12.00;99.90
52435;DHT22;38354;52.892;6.148;2023-05-24T07:49:14;12.10;99.90
52435;DHT22;38354;52.892;6.148;2023-05-24T07:51:40;12.10;99.90
52435;DHT22;38354;52.892;6.148;2023-05-24T07:54:05;12.20;99.90
52435;DHT22;38354;52.892;6.148;2023-05-24T07:56:31;12.20;99.90
52435;DHT22;38354;52.892;6.148;2023-05-24T07:58:57;12.30;99.90
52435;DHT22;38354;52.892;6.148;2023-05-24T08:01:33;12.30;99.90
52435;DHT22;38354;52.892;6.148;2023-05-24T08:04:02;12.40;99.90
52435;DHT22;38354;52.892;6.148;2023-05-24T08:06:29;12.40;99.90
52435;DHT22;38354;52.892;6.148;2023-05-24T08:08:55;12.50;99.90
52435;DHT22;38354;52.892;6.148;2023-05-24T08:11:21;12.50;99.90
52435;DHT22;38354;52.892;6.148;2023-05-24T08:13:46;12.70;99.90
52435;DHT22;38354;52.892;6.148;2023-05-24T08:16:12;12.70;99.90
52435;DHT22;38354;52.892;6.148;2023-05-24T08:18:38;12.80;99.90
52435;DHT22;38354;52.892;6.148;2023-05-24T08:21:04;12.80;99.90
52435;DHT22;38354;52.892;6.148;2023-05-24T08:23:30;12.90;99.90
52435;DHT22;38354;52.892;6.148;2023-05-24T08:25:56;12.90;99.90
52435;DHT22;38354;52.892;6.148;2023-05-24T08:28:23;13.00;99.90
52435;DHT22;38354;52.892;6.148;2023-05-24T08:30:48;13.00;99.90
52435;DHT22;38354;52.892;6.148;2023-05-24T08:33:14;13.10;99.90
52435;DHT22;38354;52.892;6.148;2023-05-24T08:35:40;13.10;99.90
52435;DHT22;38354;52.892;6.148;2023-05-24T08:38:08;13.10;99.90
52435;DHT22;38354;52.892;6.148;2023-05-24T08:40:34;13.10;99.90
52435;DHT22;38354;52.892;6.148;2023-05-24T08:43:00;13.20;99.90
52435;DHT22;38354;52.892;6.148;2023-05-24T08:45:29;13.20;99.90
52435;DHT22;38354;52.892;6.148;2023-05-24T08:47:56;13.30;99.90
52435;DHT22;38354;52.892;6.148;2023-05-24T08:50:22;13.40;99.90
52435;DHT22;38354;52.892;6.148;2023-05-24T08:52:48;13.40;99.90
52435;DHT22;38354;52.892;6.148;2023-05-24T08:55:14;13.40;99.90
52435;DHT22;38354;52.892;6.148;2023-05-24T08:57:43;13.40;99.90
52435;DHT22;38354;52.892;6.148;2023-05-24T09:00:10;13.40;99.90
52435;DHT22;38354;52.892;6.148;2023-05-24T09:02:41;13.50;99.90
52435;DHT22;38354;52.892;6.148;2023-05-24T09:05:11;13.40;99.90
52435;DHT22;38354;52.892;6.148;2023-05-24T09:07:37;13.50;99.90
52435;DHT22;38354;52.892;6.148;2023-05-24T09:10:07;13.40;99.90
52435;DHT22;38354;52.892;6.148;2023-05-24T09:12:33;13.40;99.90
52435;DHT22;38354;52.892;6.148;2023-05-24T09:15:01;13.40;99.90
52435;DHT22;38354;52.892;6.148;2023-05-24T09:17:29;13.30;99.90
52435;DHT22;38354;52.892;6.148;2023-05-24T09:19:57;13.30;99.90
52435;DHT22;38354;52.892;6.148;2023-05-24T09:22:26;13.30;99.90
52435;DHT22;38354;52.892;6.148;2023-05-24T09:24:56;13.30;99.90
52435;DHT22;38354;52.892;6.148;2023-05-24T09:27:22;13.30;99.90
52435;DHT22;38354;52.892;6.148;2023-05-24T09:29:49;13.30;99.90
52435;DHT22;38354;52.892;6.148;2023-05-24T09:32:16;13.40;99.90
52435;DHT22;38354;52.892;6.148;2023-05-24T09:34:44;13.50;99.90
52435;DHT22;38354;52.892;6.148;2023-05-24T09:37:18;13.60;99.90
52435;DHT22;38354;52.892;6.148;2023-05-24T09:39:46;13.70;99.90
52435;DHT22;38354;52.892;6.148;2023-05-24T09:42:25;13.70;99.90
52435;DHT22;38354;52.892;6.148;2023-05-24T09:45:02;13.70;99.90
52435;DHT22;38354;52.892;6.148;2023-05-24T09:47:37;13.80;99.90
52435;DHT22;38354;52.892;6.148;2023-05-24T09:50:04;13.70;99.90
52435;DHT22;38354;52.892;6.148;2023-05-24T09:52:35;13.80;99.90
52435;DHT22;38354;52.892;6.148;2023-05-24T09:55:18;13.80;99.90
52435;DHT22;38354;52.892;6.148;2023-05-24T09:58:00;13.80;99.90
52435;DHT22;38354;52.892;6.148;2023-05-24T10:00:33;13.80;99.90
52435;DHT22;38354;52.892;6.148;2023-05-24T10:03:05;13.80;99.90
52435;DHT22;38354;52.892;6.148;2023-05-24T10:05:35;13.80;99.90
52435;DHT22;38354;52.892;6.148;2023-05-24T10:08:02;13.90;99.90
52435;DHT22;38354;52.892;6.148;2023-05-24T10:10:32;13.80;99.90
52435;DHT22;38354;52.892;6.148;2023-05-24T10:12:58;13.90;99.90
52435;DHT22;38354;52.892;6.148;2023-05-24T10:15:25;13.90;99.90
52435;DHT22;38354;52.892;6.148;2023-05-24T10:17:53;13.90;99.90
52435;DHT22;38354;52.892;6.148;2023-05-24T10:20:19;13.90;99.90
52435;DHT22;38354;52.892;6.148;2023-05-24T10:22:47;14.10;99.90
52435;DHT22;38354;52.892;6.148;2023-05-24T10:25:19;14.40;99.90
52435;DHT22;38354;52.892;6.148;2023-05-24T10:27:48;14.70;99.90
52435;DHT22;38354;52.892;6.148;2023-05-24T10:32:43;15.20;99.90
52435;DHT22;38354;52.892;6.148;2023-05-24T10:35:10;15.30;99.90
52435;DHT22;38354;52.892;6.148;2023-05-24T10:37:37;15.30;99.90
52435;DHT22;38354;52.892;6.148;2023-05-24T10:40:04;15.30;99.90
52435;DHT22;38354;52.892;6.148;2023-05-24T10:42:34;15.30;99.90
52435;DHT22;38354;52.892;6.148;2023-05-24T10:47:47;15.30;99.90
52435;DHT22;38354;52.892;6.148;2023-05-24T10:50:20;15.60;99.90
52435;DHT22;38354;52.892;6.148;2023-05-24T10:52:49;15.80;99.90
52435;DHT22;38354;52.892;6.148;2023-05-24T10:55:18;15.80;99.90
52435;DHT22;38354;52.892;6.148;2023-05-24T10:57:44;15.80;99.90
52435;DHT22;38354;52.892;6.148;2023-05-24T11:00:24;15.70;99.90
52435;DHT22;38354;52.892;6.148;2023-05-24T11:03:04;16.00;99.90
52435;DHT22;38354;52.892;6.148;2023-05-24T11:08:32;16.10;99.90
52435;DHT22;38354;52.892;6.148;2023-05-24T11:11:09;15.90;99.90
52435;DHT22;38354;52.892;6.148;2023-05-24T11:13:36;16.00;99.90
52435;DHT22;38354;52.892;6.148;2023-05-24T11:16:02;16.20;99.90
52435;DHT22;38354;52.892;6.148;2023-05-24T11:18:28;16.00;99.90
52435;DHT22;38354;52.892;6.148;2023-05-24T11:20:53;15.80;99.90
52435;DHT22;38354;52.892;6.148;2023-05-24T11:23:21;15.60;99.90
52435;DHT22;38354;52.892;6.148;2023-05-24T11:25:47;15.50;99.90
52435;DHT22;38354;52.892;6.148;2023-05-24T11:28:13;15.50;99.90
52435;DHT22;38354;52.892;6.148;2023-05-24T11:30:44;15.60;99.90
52435;DHT22;38354;52.892;6.148;2023-05-24T11:35:45;15.70;99.90
52435;DHT22;38354;52.892;6.148;2023-05-24T11:38:12;15.50;99.90
52435;DHT22;38354;52.892;6.148;2023-05-24T11:40:40;15.40;99.90
52435;DHT22;38354;52.892;6.148;2023-05-24T11:43:12;15.30;99.90
52435;DHT22;38354;52.892;6.148;2023-05-24T11:45:42;15.20;99.90
52435;DHT22;38354;52.892;6.148;2023-05-24T11:48:11;15.60;99.90
52435;DHT22;38354;52.892;6.148;2023-05-24T11:50:41;15.80;99.90
52435;DHT22;38354;52.892;6.148;2023-05-24T11:53:12;15.90;99.90
52435;DHT22;38354;52.892;6.148;2023-05-24T11:55:38;15.90;99.90
52435;DHT22;38354;52.892;6.148;2023-05-24T11:58:30;15.90;99.90
52435;DHT22;38354;52.892;6.148;2023-05-24T12:00:57;15.90;99.90
52435;DHT22;38354;52.892;6.148;2023-05-24T12:03:23;16.10;99.90
52435;DHT22;38354;52.892;6.148;2023-05-24T12:05:49;16.30;99.90
52435;DHT22;38354;52.892;6.148;2023-05-24T12:08:14;16.50;99.90
52435;DHT22;38354;52.892;6.148;2023-05-24T12:10:41;16.70;99.90
52435;DHT22;38354;52.892;6.148;2023-05-24T12:13:21;16.70;99.90
52435;DHT22;38354;52.892;6.148;2023-05-24T12:15:54;16.80;99.90
52435;DHT22;38354;52.892;6.148;2023-05-24T12:18:22;16.90;99.90
52435;DHT22;38354;52.892;6.148;2023-05-24T12:20:48;16.80;99.90
52435;DHT22;38354;52.892;6.148;2023-05-24T12:23:14;16.70;99.90
52435;DHT22;38354;52.892;6.148;2023-05-24T12:25:41;16.90;99.90
52435;DHT22;38354;52.892;6.148;2023-05-24T12:28:07;17.10;99.90
52435;DHT22;38354;52.892;6.148;2023-05-24T12:30:32;17.30;99.90
52435;DHT22;38354;52.892;6.148;2023-05-24T12:32:58;17.60;99.90
52435;DHT22;38354;52.892;6.148;2023-05-24T12:35:24;17.80;99.90
52435;DHT22;38354;52.892;6.148;2023-05-24T12:37:57;17.80;99.90
52435;DHT22;38354;52.892;6.148;2023-05-24T12:40:25;17.60;99.90
52435;DHT22;38354;52.892;6.148;2023-05-24T12:42:55;17.50;99.90
52435;DHT22;38354;52.892;6.148;2023-05-24T12:45:22;17.20;99.90
52435;DHT22;38354;52.892;6.148;2023-05-24T12:47:50;17.00;99.90
52435;DHT22;38354;52.892;6.148;2023-05-24T12:50:20;17.10;99.90
52435;DHT22;38354;52.892;6.148;2023-05-24T12:52:47;17.10;99.90
52435;DHT22;38354;52.892;6.148;2023-05-24T12:55:17;17.30;99.90
52435;DHT22;38354;52.892;6.148;2023-05-24T12:57:44;17.40;99.90
52435;DHT22;38354;52.892;6.148;2023-05-24T13:00:18;17.40;99.90
52435;DHT22;38354;52.892;6.148;2023-05-24T13:02:43;17.10;99.90
52435;DHT22;38354;52.892;6.148;2023-05-24T13:05:09;16.80;99.90
52435;DHT22;38354;52.892;6.148;2023-05-24T13:07:36;16.60;99.90
52435;DHT22;38354;52.892;6.148;2023-05-24T13:10:02;16.50;99.90
52435;DHT22;38354;52.892;6.148;2023-05-24T13:12:28;16.50;99.90
52435;DHT22;38354;52.892;6.148;2023-05-24T13:14:53;16.50;99.90
52435;DHT22;38354;52.892;6.148;2023-05-24T13:17:19;16.60;99.90
52435;DHT22;38354;52.892;6.148;2023-05-24T13:19:45;16.50;99.90
52435;DHT22;38354;52.892;6.148;2023-05-24T13:22:12;16.50;99.90
52435;DHT22;38354;52.892;6.148;2023-05-24T13:24:38;16.40;99.90
52435;DHT22;38354;52.892;6.148;2023-05-24T13:27:04;16.20;99.90
52435;DHT22;38354;52.892;6.148;2023-05-24T13:29:29;16.20;99.90
52435;DHT22;38354;52.892;6.148;2023-05-24T13:31:56;16.10;99.90
52435;DHT22;38354;52.892;6.148;2023-05-24T13:34:22;16.20;99.90
52435;DHT22;38354;52.892;6.148;2023-05-24T13:36:50;16.10;99.90
52435;DHT22;38354;52.892;6.148;2023-05-24T13:39:17;16.10;99.90
52435;DHT22;38354;52.892;6.148;2023-05-24T13:41:44;16.10;99.90
52435;DHT22;38354;52.892;6.148;2023-05-24T13:44:10;16.10;99.90
52435;DHT22;38354;52.892;6.148;2023-05-24T13:46:36;16.00;99.90
52435;DHT22;38354;52.892;6.148;2023-05-24T13:49:03;16.00;99.90
52435;DHT22;38354;52.892;6.148;2023-05-24T13:51:28;16.00;99.90
52435;DHT22;38354;52.892;6.148;2023-05-24T13:53:55;16.00;99.90
52435;DHT22;38354;52.892;6.148;2023-05-24T13:56:20;16.00;99.90
52435;DHT22;38354;52.892;6.148;2023-05-24T13:58:48;16.00;99.90
52435;DHT22;38354;52.892;6.148;2023-05-24T14:01:14;16.10;99.90
52435;DHT22;38354;52.892;6.148;2023-05-24T14:03:40;16.10;99.90
52435;DHT22;38354;52.892;6.148;2023-05-24T14:06:06;16.10;99.90
52435;DHT22;38354;52.892;6.148;2023-05-24T14:08:33;16.00;99.90
52435;DHT22;38354;52.892;6.148;2023-05-24T14:10:58;16.00;99.90
52435;DHT22;38354;52.892;6.148;2023-05-24T14:13:24;16.00;99.90
52435;DHT22;38354;52.892;6.148;2023-05-24T14:15:49;16.00;99.90
52435;DHT22;38354;52.892;6.148;2023-05-24T14:18:15;16.00;99.90
52435;DHT22;38354;52.892;6.148;2023-05-24T14:20:41;16.20;99.90
52435;DHT22;38354;52.892;6.148;2023-05-24T14:23:07;16.50;99.90
52435;DHT22;38354;52.892;6.148;2023-05-24T14:25:33;16.60;99.90
52435;DHT22;38354;52.892;6.148;2023-05-24T14:27:59;16.60;99.90
52435;DHT22;38354;52.892;6.148;2023-05-24T14:30:29;16.50;99.90
52435;DHT22;38354;52.892;6.148;2023-05-24T14:32:55;16.40;99.90
52435;DHT22;38354;52.892;6.148;2023-05-24T14:35:20;16.30;99.90
52435;DHT22;38354;52.892;6.148;2023-05-24T14:37:46;16.30;99.90
52435;DHT22;38354;52.892;6.148;2023-05-24T14:40:12;16.40;99.90
52435;DHT22;38354;52.892;6.148;2023-05-24T14:42:38;16.30;99.90
52435;DHT22;38354;52.892;6.148;2023-05-24T14:45:03;16.40;99.90
52435;DHT22;38354;52.892;6.148;2023-05-24T14:47:29;16.60;99.90
52435;DHT22;38354;52.892;6.148;2023-05-24T14:49:55;16.70;99.90
52435;DHT22;38354;52.892;6.148;2023-05-24T14:52:21;16.80;99.90
52435;DHT22;38354;52.892;6.148;2023-05-24T14:54:46;16.80;99.90
52435;DHT22;38354;52.892;6.148;2023-05-24T14:57:12;16.80;99.90
52435;DHT22;38354;52.892;6.148;2023-05-24T14:59:37;16.70;99.90
52435;DHT22;38354;52.892;6.148;2023-05-24T15:02:03;16.70;99.90
52435;DHT22;38354;52.892;6.148;2023-05-24T15:04:29;16.80;99.90
52435;DHT22;38354;52.892;6.148;2023-05-24T15:06:54;16.90;99.90
52435;DHT22;38354;52.892;6.148;2023-05-24T15:09:20;17.00;99.90
52435;DHT22;38354;52.892;6.148;2023-05-24T15:11:46;16.90;99.90
52435;DHT22;38354;52.892;6.148;2023-05-24T15:14:11;16.80;99.90
52435;DHT22;38354;52.892;6.148;2023-05-24T15:16:37;16.80;99.90
52435;DHT22;38354;52.892;6.148;2023-05-24T15:19:02;16.70;99.90
52435;DHT22;38354;52.892;6.148;2023-05-24T15:21:28;16.80;99.90
52435;DHT22;38354;52.892;6.148;2023-05-24T15:23:54;16.90;99.90
52435;DHT22;38354;52.892;6.148;2023-05-24T15:26:19;17.00;99.90
52435;DHT22;38354;52.892;6.148;2023-05-24T15:28:45;16.90;99.90
52435;DHT22;38354;52.892;6.148;2023-05-24T15:31:11;16.90;99.90
52435;DHT22;38354;52.892;6.148;2023-05-24T15:33:37;16.80;99.90
52435;DHT22;38354;52.892;6.148;2023-05-24T15:36:03;16.80;99.90
52435;DHT22;38354;52.892;6.148;2023-05-24T15:38:29;16.90;99.90
52435;DHT22;38354;52.892;6.148;2023-05-24T15:40:54;17.00;99.90
52435;DHT22;38354;52.892;6.148;2023-05-24T15:43:20;17.10;99.90
52435;DHT22;38354;52.892;6.148;2023-05-24T15:45:46;17.40;99.90
52435;DHT22;38354;52.892;6.148;2023-05-24T15:48:12;17.70;99.90
52435;DHT22;38354;52.892;6.148;2023-05-24T15:50:38;18.00;99.90
52435;DHT22;38354;52.892;6.148;2023-05-24T15:53:04;18.10;99.90
52435;DHT22;38354;52.892;6.148;2023-05-24T15:55:30;18.30;99.90
52435;DHT22;38354;52.892;6.148;2023-05-24T15:57:56;18.60;99.90
52435;DHT22;38354;52.892;6.148;2023-05-24T16:00:22;18.80;99.90
52435;DHT22;38354;52.892;6.148;2023-05-24T16:02:48;19.10;99.90
52435;DHT22;38354;52.892;6.148;2023-05-24T16:05:14;19.20;99.90
52435;DHT22;38354;52.892;6.148;2023-05-24T16:07:43;19.10;99.90
52435;DHT22;38354;52.892;6.148;2023-05-24T16:10:09;18.90;99.90
52435;DHT22;38354;52.892;6.148;2023-05-24T16:12:35;18.50;99.90
52435;DHT22;38354;52.892;6.148;2023-05-24T16:15:00;18.30;99.90
52435;DHT22;38354;52.892;6.148;2023-05-24T16:17:26;18.10;99.90
52435;DHT22;38354;52.892;6.148;2023-05-24T16:19:52;17.80;99.90
52435;DHT22;38354;52.892;6.148;2023-05-24T16:22:17;17.60;99.90
52435;DHT22;38354;52.892;6.148;2023-05-24T16:24:43;17.50;99.90
52435;DHT22;38354;52.892;6.148;2023-05-24T16:27:09;17.40;99.90
52435;DHT22;38354;52.892;6.148;2023-05-24T16:29:36;17.60;99.90
52435;DHT22;38354;52.892;6.148;2023-05-24T16:32:01;17.60;99.90
52435;DHT22;38354;52.892;6.148;2023-05-24T16:34:27;17.60;99.90
52435;DHT22;38354;52.892;6.148;2023-05-24T16:36:53;17.50;99.90
52435;DHT22;38354;52.892;6.148;2023-05-24T16:39:18;17.50;99.90
52435;DHT22;38354;52.892;6.148;2023-05-24T16:41:44;17.40;99.90
52435;DHT22;38354;52.892;6.148;2023-05-24T16:44:10;17.40;99.90
52435;DHT22;38354;52.892;6.148;2023-05-24T16:46:45;17.30;99.90
52435;DHT22;38354;52.892;6.148;2023-05-24T16:49:11;17.20;99.90
52435;DHT22;38354;52.892;6.148;2023-05-24T16:51:36;17.10;99.90
52435;DHT22;38354;52.892;6.148;2023-05-24T16:54:03;17.00;99.90
52435;DHT22;38354;52.892;6.148;2023-05-24T16:56:29;17.00;99.90
52435;DHT22;38354;52.892;6.148;2023-05-24T16:58:55;16.90;99.90
52435;DHT22;38354;52.892;6.148;2023-05-24T17:01:21;17.00;99.90
52435;DHT22;38354;52.892;6.148;2023-05-24T17:03:47;16.90;99.90
52435;DHT22;38354;52.892;6.148;2023-05-24T17:06:12;16.90;99.90
52435;DHT22;38354;52.892;6.148;2023-05-24T17:08:38;16.80;99.90
52435;DHT22;38354;52.892;6.148;2023-05-24T17:11:05;16.90;99.90
52435;DHT22;38354;52.892;6.148;2023-05-24T17:13:31;17.00;99.90
52435;DHT22;38354;52.892;6.148;2023-05-24T17:15:57;17.20;99.90
52435;DHT22;38354;52.892;6.148;2023-05-24T17:18:24;17.50;99.90
52435;DHT22;38354;52.892;6.148;2023-05-24T17:20:58;17.60;99.90
52435;DHT22;38354;52.892;6.148;2023-05-24T17:23:26;17.70;99.90
52435;DHT22;38354;52.892;6.148;2023-05-24T17:25:52;17.80;99.90
52435;DHT22;38354;52.892;6.148;2023-05-24T17:28:20;17.80;99.90
52435;DHT22;38354;52.892;6.148;2023-05-24T17:30:54;17.80;99.90
52435;DHT22;38354;52.892;6.148;2023-05-24T17:33:24;17.80;99.90
52435;DHT22;38354;52.892;6.148;2023-05-24T17:35:50;17.80;99.90
52435;DHT22;38354;52.892;6.148;2023-05-24T17:38:16;17.70;99.90
52435;DHT22;38354;52.892;6.148;2023-05-24T17:40:42;17.70;99.90
52435;DHT22;38354;52.892;6.148;2023-05-24T17:43:09;17.60;99.90
52435;DHT22;38354;52.892;6.148;2023-05-24T17:45:35;17.60;99.90
52435;DHT22;38354;52.892;6.148;2023-05-24T17:48:01;17.50;99.90
52435;DHT22;38354;52.892;6.148;2023-05-24T17:50:27;17.40;99.90
52435;DHT22;38354;52.892;6.148;2023-05-24T17:52:52;17.50;99.90
52435;DHT22;38354;52.892;6.148;2023-05-24T17:55:18;17.50;99.90
52435;DHT22;38354;52.892;6.148;2023-05-24T17:57:44;17.40;99.90
52435;DHT22;38354;52.892;6.148;2023-05-24T18:00:10;17.30;99.90
52435;DHT22;38354;52.892;6.148;2023-05-24T18:02:36;17.10;99.90
52435;DHT22;38354;52.892;6.148;2023-05-24T18:05:02;17.00;99.90
52435;DHT22;38354;52.892;6.148;2023-05-24T18:07:28;17.00;99.90
52435;DHT22;38354;52.892;6.148;2023-05-24T18:09:54;17.10;99.90
52435;DHT22;38354;52.892;6.148;2023-05-24T18:12:20;17.20;99.90
52435;DHT22;38354;52.892;6.148;2023-05-24T18:14:46;17.20;99.90
52435;DHT22;38354;52.892;6.148;2023-05-24T18:17:12;17.10;99.90
52435;DHT22;38354;52.892;6.148;2023-05-24T18:19:39;16.90;99.90
52435;DHT22;38354;52.892;6.148;2023-05-24T18:22:04;16.70;99.90
52435;DHT22;38354;52.892;6.148;2023-05-24T18:24:31;16.50;99.90
52435;DHT22;38354;52.892;6.148;2023-05-24T18:26:56;16.40;99.90
52435;DHT22;38354;52.892;6.148;2023-05-24T18:29:22;16.20;99.90
52435;DHT22;38354;52.892;6.148;2023-05-24T18:31:48;16.00;99.90
52435;DHT22;38354;52.892;6.148;2023-05-24T18:34:14;15.90;99.90
52435;DHT22;38354;52.892;6.148;2023-05-24T18:36:39;15.70;99.90
52435;DHT22;38354;52.892;6.148;2023-05-24T18:39:05;15.60;99.90
52435;DHT22;38354;52.892;6.148;2023-05-24T18:41:30;15.40;99.90
52435;DHT22;38354;52.892;6.148;2023-05-24T18:43:56;15.40;99.90